sensor_id;sensor_type;location;lat;lon;timestamp;P1;durP1;ratioP1;P2;durP2;ratioP2
15905;SDS011;8051;50.820;4.884;2022-09-09T00:01:36;1999.90;;;999.90;;
15905;SDS011;8051;50.820;4.884;2022-09-09T00:04:11;1999.90;;;999.90;;
15905;SDS011;8051;50.820;4.884;2022-09-09T00:06:50;1999.90;;;999.90;;
15905;SDS011;8051;50.820;4.884;2022-09-09T00:09:27;1999.90;;;999.90;;
15905;SDS011;8051;50.820;4.884;2022-09-09T00:11:56;1999.90;;;999.90;;
15905;SDS011;8051;50.820;4.884;2022-09-09T00:14:31;1999.90;;;999.90;;
15905;SDS011;8051;50.820;4.884;2022-09-09T00:17:04;1999.90;;;999.90;;
15905;SDS011;8051;50.820;4.884;2022-09-09T00:19:37;1999.90;;;999.90;;
15905;SDS011;8051;50.820;4.884;2022-09-09T00:22:15;1999.90;;;999.90;;
15905;SDS011;8051;50.820;4.884;2022-09-09T00:24:44;1999.90;;;999.90;;
15905;SDS011;8051;50.820;4.884;2022-09-09T00:27:14;1999.90;;;999.90;;
15905;SDS011;8051;50.820;4.884;2022-09-09T00:29:51;1999.90;;;999.90;;
15905;SDS011;8051;50.820;4.884;2022-09-09T00:32:20;1999.90;;;999.90;;
15905;SDS011;8051;50.820;4.884;2022-09-09T00:34:49;1999.90;;;999.90;;
15905;SDS011;8051;50.820;4.884;2022-09-09T00:37:20;1999.90;;;999.90;;
15905;SDS011;8051;50.820;4.884;2022-09-09T00:39:48;1999.90;;;999.90;;
15905;SDS011;8051;50.820;4.884;2022-09-09T00:42:20;1999.90;;;999.90;;
15905;SDS011;8051;50.820;4.884;2022-09-09T00:44:52;1999.90;;;999.90;;
15905;SDS011;8051;50.820;4.884;2022-09-09T00:47:28;1999.90;;;999.90;;
15905;SDS011;8051;50.820;4.884;2022-09-09T00:50:09;1999.90;;;999.90;;
15905;SDS011;8051;50.820;4.884;2022-09-09T00:52:46;1999.90;;;999.90;;
15905;SDS011;8051;50.820;4.884;2022-09-09T00:55:25;1999.90;;;999.90;;
15905;SDS011;8051;50.820;4.884;2022-09-09T00:57:58;1999.90;;;999.90;;
15905;SDS011;8051;50.820;4.884;2022-09-09T01:00:26;1999.90;;;999.90;;
15905;SDS011;8051;50.820;4.884;2022-09-09T01:02:58;1999.90;;;999.90;;
15905;SDS011;8051;50.820;4.884;2022-09-09T01:05:38;1999.90;;;999.90;;
15905;SDS011;8051;50.820;4.884;2022-09-09T01:08:13;1999.90;;;999.90;;
15905;SDS011;8051;50.820;4.884;2022-09-09T01:10:53;1999.90;;;999.90;;
15905;SDS011;8051;50.820;4.884;2022-09-09T01:13:22;1999.90;;;999.90;;
15905;SDS011;8051;50.820;4.884;2022-09-09T01:15:51;1999.90;;;999.90;;
15905;SDS011;8051;50.820;4.884;2022-09-09T01:18:20;1999.90;;;999.90;;
15905;SDS011;8051;50.820;4.884;2022-09-09T01:20:53;1999.90;;;999.90;;
15905;SDS011;8051;50.820;4.884;2022-09-09T01:23:41;1999.90;;;999.90;;
15905;SDS011;8051;50.820;4.884;2022-09-09T01:26:23;1999.90;;;999.90;;
15905;SDS011;8051;50.820;4.884;2022-09-09T01:28:53;1999.90;;;999.90;;
15905;SDS011;8051;50.820;4.884;2022-09-09T01:31:21;1999.90;;;999.90;;
15905;SDS011;8051;50.820;4.884;2022-09-09T01:33:52;1999.90;;;999.90;;
15905;SDS011;8051;50.820;4.884;2022-09-09T01:36:21;1999.90;;;999.90;;
15905;SDS011;8051;50.820;4.884;2022-09-09T01:38:52;1999.90;;;999.90;;
15905;SDS011;8051;50.820;4.884;2022-09-09T01:41:19;1999.90;;;999.90;;
15905;SDS011;8051;50.820;4.884;2022-09-09T01:43:48;1999.90;;;999.90;;
15905;SDS011;8051;50.820;4.884;2022-09-09T01:46:15;1999.90;;;999.90;;
15905;SDS011;8051;50.820;4.884;2022-09-09T01:48:43;1999.90;;;999.90;;
15905;SDS011;8051;50.820;4.884;2022-09-09T01:51:11;1999.90;;;999.90;;
15905;SDS011;8051;50.820;4.884;2022-09-09T01:53:38;1999.90;;;999.90;;
15905;SDS011;8051;50.820;4.884;2022-09-09T01:56:09;1999.90;;;999.90;;
15905;SDS011;8051;50.820;4.884;2022-09-09T01:58:51;1999.90;;;999.90;;
15905;SDS011;8051;50.820;4.884;2022-09-09T02:01:28;1999.90;;;999.90;;
15905;SDS011;8051;50.820;4.884;2022-09-09T02:04:08;1999.90;;;999.90;;
15905;SDS011;8051;50.820;4.884;2022-09-09T02:06:45;1999.90;;;999.90;;
15905;SDS011;8051;50.820;4.884;2022-09-09T02:09:14;1999.90;;;999.90;;
15905;SDS011;8051;50.820;4.884;2022-09-09T02:11:48;1999.90;;;999.90;;
15905;SDS011;8051;50.820;4.884;2022-09-09T02:14:26;1999.90;;;999.90;;
15905;SDS011;8051;50.820;4.884;2022-09-09T02:16:56;1999.90;;;999.90;;
15905;SDS011;8051;50.820;4.884;2022-09-09T02:19:31;1999.90;;;999.90;;
15905;SDS011;8051;50.820;4.884;2022-09-09T02:22:00;1999.90;;;999.90;;
15905;SDS011;8051;50.820;4.884;2022-09-09T02:24:28;1999.90;;;999.90;;
15905;SDS011;8051;50.820;4.884;2022-09-09T02:26:58;1999.90;;;999.90;;
15905;SDS011;8051;50.820;4.884;2022-09-09T02:29:32;1999.90;;;999.90;;
15905;SDS011;8051;50.820;4.884;2022-09-09T02:32:02;1999.90;;;999.90;;
15905;SDS011;8051;50.820;4.884;2022-09-09T02:34:33;1999.90;;;999.90;;
15905;SDS011;8051;50.820;4.884;2022-09-09T02:37:05;1999.90;;;999.90;;
15905;SDS011;8051;50.820;4.884;2022-09-09T02:39:34;1999.90;;;999.90;;
15905;SDS011;8051;50.820;4.884;2022-09-09T02:42:01;1999.90;;;999.90;;
15905;SDS011;8051;50.820;4.884;2022-09-09T02:44:29;1999.90;;;999.90;;
15905;SDS011;8051;50.820;4.884;2022-09-09T02:47:03;1999.90;;;999.90;;
15905;SDS011;8051;50.820;4.884;2022-09-09T02:49:44;1999.90;;;999.90;;
15905;SDS011;8051;50.820;4.884;2022-09-09T02:52:22;1999.90;;;999.90;;
15905;SDS011;8051;50.820;4.884;2022-09-09T02:54:59;1999.90;;;999.90;;
15905;SDS011;8051;50.820;4.884;2022-09-09T02:57:33;1999.90;;;999.90;;
15905;SDS011;8051;50.820;4.884;2022-09-09T03:00:01;1999.90;;;999.90;;
15905;SDS011;8051;50.820;4.884;2022-09-09T03:02:30;1999.90;;;999.90;;
15905;SDS011;8051;50.820;4.884;2022-09-09T03:04:57;1999.90;;;999.90;;
15905;SDS011;8051;50.820;4.884;2022-09-09T03:07:24;1999.90;;;999.90;;
15905;SDS011;8051;50.820;4.884;2022-09-09T03:09:52;1999.90;;;999.90;;
15905;SDS011;8051;50.820;4.884;2022-09-09T03:12:19;1999.90;;;999.90;;
15905;SDS011;8051;50.820;4.884;2022-09-09T03:14:46;1999.90;;;999.90;;
15905;SDS011;8051;50.820;4.884;2022-09-09T03:17:13;1999.90;;;999.90;;
15905;SDS011;8051;50.820;4.884;2022-09-09T03:19:41;1999.90;;;999.90;;
15905;SDS011;8051;50.820;4.884;2022-09-09T03:22:09;1999.90;;;999.90;;
15905;SDS011;8051;50.820;4.884;2022-09-09T03:24:37;1999.90;;;999.90;;
15905;SDS011;8051;50.820;4.884;2022-09-09T03:27:04;1999.90;;;999.90;;
15905;SDS011;8051;50.820;4.884;2022-09-09T03:29:31;1999.90;;;999.90;;
15905;SDS011;8051;50.820;4.884;2022-09-09T03:31:58;1999.90;;;999.90;;
15905;SDS011;8051;50.820;4.884;2022-09-09T03:34:25;1999.90;;;999.90;;
15905;SDS011;8051;50.820;4.884;2022-09-09T03:36:53;1999.90;;;999.90;;
15905;SDS011;8051;50.820;4.884;2022-09-09T03:39:20;1999.90;;;999.90;;
15905;SDS011;8051;50.820;4.884;2022-09-09T03:41:47;1999.90;;;999.90;;
15905;SDS011;8051;50.820;4.884;2022-09-09T03:44:14;1999.90;;;999.90;;
15905;SDS011;8051;50.820;4.884;2022-09-09T03:46:41;1999.90;;;999.90;;
15905;SDS011;8051;50.820;4.884;2022-09-09T03:49:08;1999.90;;;999.90;;
15905;SDS011;8051;50.820;4.884;2022-09-09T03:51:35;1999.90;;;999.90;;
15905;SDS011;8051;50.820;4.884;2022-09-09T03:54:05;1999.90;;;999.90;;
15905;SDS011;8051;50.820;4.884;2022-09-09T03:56:33;1999.90;;;999.90;;
15905;SDS011;8051;50.820;4.884;2022-09-09T03:59:00;1999.90;;;999.90;;
15905;SDS011;8051;50.820;4.884;2022-09-09T04:01:27;1999.90;;;999.90;;
15905;SDS011;8051;50.820;4.884;2022-09-09T04:03:54;1999.90;;;999.90;;
15905;SDS011;8051;50.820;4.884;2022-09-09T04:06:23;1999.90;;;999.90;;
15905;SDS011;8051;50.820;4.884;2022-09-09T04:08:50;1999.90;;;999.90;;
15905;SDS011;8051;50.820;4.884;2022-09-09T04:11:19;1999.90;;;999.90;;
15905;SDS011;8051;50.820;4.884;2022-09-09T04:13:46;1999.90;;;999.90;;
15905;SDS011;8051;50.820;4.884;2022-09-09T04:16:12;1999.90;;;999.90;;
15905;SDS011;8051;50.820;4.884;2022-09-09T04:18:39;1999.90;;;999.90;;
15905;SDS011;8051;50.820;4.884;2022-09-09T04:21:07;1999.90;;;999.90;;
15905;SDS011;8051;50.820;4.884;2022-09-09T04:23:35;1999.90;;;999.90;;
15905;SDS011;8051;50.820;4.884;2022-09-09T04:26:02;1999.90;;;999.90;;
15905;SDS011;8051;50.820;4.884;2022-09-09T04:28:32;1999.90;;;999.90;;
15905;SDS011;8051;50.820;4.884;2022-09-09T04:31:03;1999.90;;;999.90;;
15905;SDS011;8051;50.820;4.884;2022-09-09T04:33:31;1999.90;;;999.90;;
15905;SDS011;8051;50.820;4.884;2022-09-09T04:35:58;1999.90;;;999.90;;
15905;SDS011;8051;50.820;4.884;2022-09-09T04:38:25;1999.90;;;999.90;;
15905;SDS011;8051;50.820;4.884;2022-09-09T04:40:52;1999.90;;;999.90;;
15905;SDS011;8051;50.820;4.884;2022-09-09T04:43:19;1999.90;;;999.90;;
15905;SDS011;8051;50.820;4.884;2022-09-09T04:45:49;1999.90;;;999.90;;
15905;SDS011;8051;50.820;4.884;2022-09-09T04:48:17;1999.90;;;999.90;;
15905;SDS011;8051;50.820;4.884;2022-09-09T04:50:44;1999.90;;;999.90;;
15905;SDS011;8051;50.820;4.884;2022-09-09T04:53:19;1999.90;;;999.90;;
15905;SDS011;8051;50.820;4.884;2022-09-09T04:55:47;1999.90;;;999.90;;
15905;SDS011;8051;50.820;4.884;2022-09-09T04:58:14;1999.90;;;999.90;;
15905;SDS011;8051;50.820;4.884;2022-09-09T05:00:41;1999.90;;;999.90;;
15905;SDS011;8051;50.820;4.884;2022-09-09T05:03:09;1999.90;;;999.90;;
15905;SDS011;8051;50.820;4.884;2022-09-09T05:05:37;1999.90;;;999.90;;
15905;SDS011;8051;50.820;4.884;2022-09-09T05:08:05;1999.90;;;999.90;;
15905;SDS011;8051;50.820;4.884;2022-09-09T05:10:34;1999.90;;;999.90;;
15905;SDS011;8051;50.820;4.884;2022-09-09T05:13:03;1999.90;;;999.90;;
15905;SDS011;8051;50.820;4.884;2022-09-09T05:15:31;1999.90;;;999.90;;
15905;SDS011;8051;50.820;4.884;2022-09-09T05:17:59;1999.90;;;999.90;;
15905;SDS011;8051;50.820;4.884;2022-09-09T05:20:28;1999.90;;;999.90;;
15905;SDS011;8051;50.820;4.884;2022-09-09T05:22:56;1999.90;;;999.90;;
15905;SDS011;8051;50.820;4.884;2022-09-09T05:25:23;1999.90;;;999.90;;
15905;SDS011;8051;50.820;4.884;2022-09-09T05:27:51;1999.90;;;999.90;;
15905;SDS011;8051;50.820;4.884;2022-09-09T05:30:18;1999.90;;;999.90;;
15905;SDS011;8051;50.820;4.884;2022-09-09T05:32:45;1999.90;;;999.90;;
15905;SDS011;8051;50.820;4.884;2022-09-09T05:35:13;1999.90;;;999.90;;
15905;SDS011;8051;50.820;4.884;2022-09-09T05:37:42;1999.90;;;999.90;;
15905;SDS011;8051;50.820;4.884;2022-09-09T05:40:11;1999.90;;;999.90;;
15905;SDS011;8051;50.820;4.884;2022-09-09T05:42:38;1999.90;;;999.90;;
15905;SDS011;8051;50.820;4.884;2022-09-09T05:45:05;1999.90;;;999.90;;
15905;SDS011;8051;50.820;4.884;2022-09-09T05:47:33;1999.90;;;999.90;;
15905;SDS011;8051;50.820;4.884;2022-09-09T05:50:00;1999.90;;;999.90;;
15905;SDS011;8051;50.820;4.884;2022-09-09T05:52:27;1999.90;;;999.90;;
15905;SDS011;8051;50.820;4.884;2022-09-09T05:54:55;1999.90;;;999.90;;
15905;SDS011;8051;50.820;4.884;2022-09-09T05:57:24;1999.90;;;999.90;;
15905;SDS011;8051;50.820;4.884;2022-09-09T05:59:51;1999.90;;;999.90;;
15905;SDS011;8051;50.820;4.884;2022-09-09T06:02:18;1999.90;;;999.90;;
15905;SDS011;8051;50.820;4.884;2022-09-09T06:04:45;1999.90;;;999.90;;
15905;SDS011;8051;50.820;4.884;2022-09-09T06:07:12;1999.90;;;999.90;;
15905;SDS011;8051;50.820;4.884;2022-09-09T06:09:39;1999.90;;;999.90;;
15905;SDS011;8051;50.820;4.884;2022-09-09T06:12:08;1999.90;;;999.90;;
15905;SDS011;8051;50.820;4.884;2022-09-09T06:14:35;1999.90;;;999.90;;
15905;SDS011;8051;50.820;4.884;2022-09-09T06:17:02;1999.90;;;999.90;;
15905;SDS011;8051;50.820;4.884;2022-09-09T06:19:29;1999.90;;;999.90;;
15905;SDS011;8051;50.820;4.884;2022-09-09T06:21:55;1999.90;;;999.90;;
15905;SDS011;8051;50.820;4.884;2022-09-09T06:24:24;1999.90;;;999.90;;
15905;SDS011;8051;50.820;4.884;2022-09-09T06:26:51;1999.90;;;999.90;;
15905;SDS011;8051;50.820;4.884;2022-09-09T06:29:20;1999.90;;;999.90;;
15905;SDS011;8051;50.820;4.884;2022-09-09T06:31:46;1999.90;;;999.90;;
15905;SDS011;8051;50.820;4.884;2022-09-09T06:34:13;1999.90;;;999.90;;
15905;SDS011;8051;50.820;4.884;2022-09-09T06:36:40;1999.90;;;999.90;;
15905;SDS011;8051;50.820;4.884;2022-09-09T06:39:07;1999.90;;;999.90;;
15905;SDS011;8051;50.820;4.884;2022-09-09T06:41:36;1999.90;;;999.90;;
15905;SDS011;8051;50.820;4.884;2022-09-09T06:44:03;1999.90;;;999.90;;
15905;SDS011;8051;50.820;4.884;2022-09-09T06:46:32;1999.90;;;999.90;;
15905;SDS011;8051;50.820;4.884;2022-09-09T06:49:00;1999.90;;;999.90;;
15905;SDS011;8051;50.820;4.884;2022-09-09T06:51:28;1999.90;;;999.90;;
15905;SDS011;8051;50.820;4.884;2022-09-09T06:53:56;1999.90;;;999.90;;
15905;SDS011;8051;50.820;4.884;2022-09-09T06:56:25;1999.90;;;999.90;;
15905;SDS011;8051;50.820;4.884;2022-09-09T06:58:53;1955.33;;;999.90;;
15905;SDS011;8051;50.820;4.884;2022-09-09T07:01:22;1999.90;;;999.90;;
15905;SDS011;8051;50.820;4.884;2022-09-09T07:03:51;1403.47;;;999.90;;
15905;SDS011;8051;50.820;4.884;2022-09-09T07:06:21;1862.13;;;999.90;;
15905;SDS011;8051;50.820;4.884;2022-09-09T07:08:50;1423.03;;;999.90;;
15905;SDS011;8051;50.820;4.884;2022-09-09T07:11:17;1234.47;;;999.90;;
15905;SDS011;8051;50.820;4.884;2022-09-09T07:13:45;1319.47;;;999.90;;
15905;SDS011;8051;50.820;4.884;2022-09-09T07:16:13;1354.43;;;999.90;;
15905;SDS011;8051;50.820;4.884;2022-09-09T07:18:41;1213.70;;;999.90;;
15905;SDS011;8051;50.820;4.884;2022-09-09T07:21:10;1216.30;;;999.90;;
15905;SDS011;8051;50.820;4.884;2022-09-09T07:23:38;1712.60;;;999.90;;
15905;SDS011;8051;50.820;4.884;2022-09-09T07:26:09;1355.40;;;999.90;;
15905;SDS011;8051;50.820;4.884;2022-09-09T07:28:37;1318.50;;;999.90;;
15905;SDS011;8051;50.820;4.884;2022-09-09T07:31:04;1640.07;;;999.90;;
15905;SDS011;8051;50.820;4.884;2022-09-09T07:33:33;1538.67;;;999.90;;
15905;SDS011;8051;50.820;4.884;2022-09-09T07:36:02;1762.40;;;999.90;;
15905;SDS011;8051;50.820;4.884;2022-09-09T07:38:32;1989.73;;;999.90;;
15905;SDS011;8051;50.820;4.884;2022-09-09T07:41:03;1449.80;;;999.90;;
15905;SDS011;8051;50.820;4.884;2022-09-09T07:43:31;1999.90;;;999.90;;
15905;SDS011;8051;50.820;4.884;2022-09-09T07:45:59;1302.53;;;999.90;;
15905;SDS011;8051;50.820;4.884;2022-09-09T07:48:27;1337.63;;;999.90;;
15905;SDS011;8051;50.820;4.884;2022-09-09T07:51:02;1999.90;;;999.90;;
15905;SDS011;8051;50.820;4.884;2022-09-09T07:53:34;1343.77;;;999.90;;
15905;SDS011;8051;50.820;4.884;2022-09-09T07:56:04;1638.40;;;999.90;;
15905;SDS011;8051;50.820;4.884;2022-09-09T07:58:32;1346.90;;;999.90;;
15905;SDS011;8051;50.820;4.884;2022-09-09T08:00:59;1322.90;;;999.90;;
15905;SDS011;8051;50.820;4.884;2022-09-09T08:03:26;1749.53;;;999.90;;
15905;SDS011;8051;50.820;4.884;2022-09-09T08:05:53;1308.57;;;999.90;;
15905;SDS011;8051;50.820;4.884;2022-09-09T08:08:27;1208.37;;;999.90;;
15905;SDS011;8051;50.820;4.884;2022-09-09T08:11:01;1223.10;;;999.90;;
15905;SDS011;8051;50.820;4.884;2022-09-09T08:13:30;1232.33;;;999.90;;
15905;SDS011;8051;50.820;4.884;2022-09-09T08:16:03;1184.30;;;999.90;;
15905;SDS011;8051;50.820;4.884;2022-09-09T08:18:31;1158.73;;;999.90;;
15905;SDS011;8051;50.820;4.884;2022-09-09T08:21:04;1174.90;;;999.90;;
15905;SDS011;8051;50.820;4.884;2022-09-09T08:23:32;1219.57;;;999.90;;
15905;SDS011;8051;50.820;4.884;2022-09-09T08:26:04;1288.83;;;999.90;;
15905;SDS011;8051;50.820;4.884;2022-09-09T08:28:32;1229.17;;;999.90;;
15905;SDS011;8051;50.820;4.884;2022-09-09T08:31:04;1198.67;;;999.90;;
15905;SDS011;8051;50.820;4.884;2022-09-09T08:33:32;1121.40;;;999.90;;
15905;SDS011;8051;50.820;4.884;2022-09-09T08:36:01;1999.90;;;999.90;;
15905;SDS011;8051;50.820;4.884;2022-09-09T08:38:28;1168.80;;;999.90;;
15905;SDS011;8051;50.820;4.884;2022-09-09T08:40:56;1326.43;;;999.90;;
15905;SDS011;8051;50.820;4.884;2022-09-09T08:43:33;1070.73;;;989.63;;
15905;SDS011;8051;50.820;4.884;2022-09-09T08:46:01;1031.67;;;954.97;;
15905;SDS011;8051;50.820;4.884;2022-09-09T08:48:38;1029.00;;;953.57;;
15905;SDS011;8051;50.820;4.884;2022-09-09T08:51:14;1205.20;;;999.90;;
15905;SDS011;8051;50.820;4.884;2022-09-09T08:53:43;1160.40;;;999.90;;
15905;SDS011;8051;50.820;4.884;2022-09-09T08:56:14;1554.57;;;999.90;;
15905;SDS011;8051;50.820;4.884;2022-09-09T08:58:45;1199.83;;;999.90;;
15905;SDS011;8051;50.820;4.884;2022-09-09T09:01:18;1138.60;;;999.90;;
15905;SDS011;8051;50.820;4.884;2022-09-09T09:03:57;1187.47;;;999.90;;
15905;SDS011;8051;50.820;4.884;2022-09-09T09:06:34;1287.63;;;999.90;;
15905;SDS011;8051;50.820;4.884;2022-09-09T09:09:11;1538.73;;;999.90;;
15905;SDS011;8051;50.820;4.884;2022-09-09T09:11:47;1203.90;;;999.90;;
15905;SDS011;8051;50.820;4.884;2022-09-09T09:14:17;1224.23;;;999.90;;
15905;SDS011;8051;50.820;4.884;2022-09-09T09:16:49;1312.00;;;999.90;;
15905;SDS011;8051;50.820;4.884;2022-09-09T09:19:19;1999.90;;;999.90;;
15905;SDS011;8051;50.820;4.884;2022-09-09T09:21:48;1999.90;;;999.90;;
15905;SDS011;8051;50.820;4.884;2022-09-09T09:24:20;1999.90;;;999.90;;
15905;SDS011;8051;50.820;4.884;2022-09-09T09:26:53;1999.90;;;999.90;;
15905;SDS011;8051;50.820;4.884;2022-09-09T09:29:21;1999.90;;;999.90;;
15905;SDS011;8051;50.820;4.884;2022-09-09T09:31:51;1999.90;;;999.90;;
15905;SDS011;8051;50.820;4.884;2022-09-09T09:34:21;1999.90;;;999.90;;
15905;SDS011;8051;50.820;4.884;2022-09-09T09:36:52;1999.90;;;999.90;;
15905;SDS011;8051;50.820;4.884;2022-09-09T09:39:23;1999.90;;;999.90;;
15905;SDS011;8051;50.820;4.884;2022-09-09T09:41:52;1999.90;;;999.90;;
15905;SDS011;8051;50.820;4.884;2022-09-09T09:44:22;1999.90;;;999.90;;
15905;SDS011;8051;50.820;4.884;2022-09-09T09:46:51;1999.90;;;999.90;;
15905;SDS011;8051;50.820;4.884;2022-09-09T09:49:19;1999.90;;;999.90;;
15905;SDS011;8051;50.820;4.884;2022-09-09T09:51:45;1999.90;;;999.90;;
15905;SDS011;8051;50.820;4.884;2022-09-09T09:54:15;1999.90;;;999.90;;
15905;SDS011;8051;50.820;4.884;2022-09-09T09:56:54;1999.90;;;999.90;;
15905;SDS011;8051;50.820;4.884;2022-09-09T09:59:22;1999.90;;;999.90;;
15905;SDS011;8051;50.820;4.884;2022-09-09T10:02:05;1999.90;;;999.90;;
15905;SDS011;8051;50.820;4.884;2022-09-09T10:04:43;1999.90;;;999.90;;
15905;SDS011;8051;50.820;4.884;2022-09-09T10:07:11;1999.90;;;999.90;;
15905;SDS011;8051;50.820;4.884;2022-09-09T10:09:38;1999.90;;;999.90;;
15905;SDS011;8051;50.820;4.884;2022-09-09T10:12:12;1999.90;;;999.90;;
15905;SDS011;8051;50.820;4.884;2022-09-09T10:14:47;1999.90;;;999.90;;
15905;SDS011;8051;50.820;4.884;2022-09-09T10:17:22;1999.90;;;999.90;;
15905;SDS011;8051;50.820;4.884;2022-09-09T10:19:59;1999.90;;;999.90;;
15905;SDS011;8051;50.820;4.884;2022-09-09T10:22:34;1999.90;;;999.90;;
15905;SDS011;8051;50.820;4.884;2022-09-09T10:25:11;1999.90;;;999.90;;
15905;SDS011;8051;50.820;4.884;2022-09-09T10:27:50;1999.90;;;999.90;;
15905;SDS011;8051;50.820;4.884;2022-09-09T10:30:40;1999.90;;;999.90;;
15905;SDS011;8051;50.820;4.884;2022-09-09T10:33:20;1999.90;;;999.90;;
15905;SDS011;8051;50.820;4.884;2022-09-09T10:35:58;1999.90;;;999.90;;
15905;SDS011;8051;50.820;4.884;2022-09-09T10:38:38;1999.90;;;999.90;;
15905;SDS011;8051;50.820;4.884;2022-09-09T10:41:13;1999.90;;;999.90;;
15905;SDS011;8051;50.820;4.884;2022-09-09T10:43:59;1999.90;;;999.90;;
15905;SDS011;8051;50.820;4.884;2022-09-09T10:46:41;1999.90;;;999.90;;
15905;SDS011;8051;50.820;4.884;2022-09-09T10:49:20;1999.90;;;999.90;;
15905;SDS011;8051;50.820;4.884;2022-09-09T10:51:59;1999.90;;;999.90;;
15905;SDS011;8051;50.820;4.884;2022-09-09T10:54:41;1999.90;;;999.90;;
15905;SDS011;8051;50.820;4.884;2022-09-09T10:57:22;1999.90;;;999.90;;
15905;SDS011;8051;50.820;4.884;2022-09-09T10:59:58;1999.90;;;999.90;;
15905;SDS011;8051;50.820;4.884;2022-09-09T11:02:30;1999.90;;;999.90;;
15905;SDS011;8051;50.820;4.884;2022-09-09T11:05:00;1999.90;;;999.90;;
15905;SDS011;8051;50.820;4.884;2022-09-09T11:07:32;1999.90;;;999.90;;
15905;SDS011;8051;50.820;4.884;2022-09-09T11:10:05;1999.90;;;999.90;;
15905;SDS011;8051;50.820;4.884;2022-09-09T11:12:38;1999.90;;;999.90;;
15905;SDS011;8051;50.820;4.884;2022-09-09T11:15:14;1999.90;;;999.90;;
15905;SDS011;8051;50.820;4.884;2022-09-09T11:17:46;1999.90;;;999.90;;
15905;SDS011;8051;50.820;4.884;2022-09-09T11:20:16;1999.90;;;999.90;;
15905;SDS011;8051;50.820;4.884;2022-09-09T11:22:46;1999.90;;;999.90;;
15905;SDS011;8051;50.820;4.884;2022-09-09T11:25:17;1999.90;;;999.90;;
15905;SDS011;8051;50.820;4.884;2022-09-09T11:27:51;1999.90;;;808.03;;
15905;SDS011;8051;50.820;4.884;2022-09-09T11:30:29;1999.90;;;999.90;;
15905;SDS011;8051;50.820;4.884;2022-09-09T11:36:01;1999.90;;;999.90;;
15905;SDS011;8051;50.820;4.884;2022-09-09T11:38:39;1999.90;;;999.90;;
15905;SDS011;8051;50.820;4.884;2022-09-09T11:41:10;1999.90;;;999.90;;
15905;SDS011;8051;50.820;4.884;2022-09-09T11:43:39;1999.90;;;999.90;;
15905;SDS011;8051;50.820;4.884;2022-09-09T11:46:09;1999.90;;;999.90;;
15905;SDS011;8051;50.820;4.884;2022-09-09T11:48:39;1999.90;;;999.90;;
15905;SDS011;8051;50.820;4.884;2022-09-09T11:51:10;1999.90;;;999.90;;
15905;SDS011;8051;50.820;4.884;2022-09-09T11:53:48;1999.90;;;999.90;;
15905;SDS011;8051;50.820;4.884;2022-09-09T11:59:19;1999.90;;;999.90;;
15905;SDS011;8051;50.820;4.884;2022-09-09T12:01:50;1999.90;;;999.90;;
15905;SDS011;8051;50.820;4.884;2022-09-09T12:04:26;1824.87;;;999.90;;
15905;SDS011;8051;50.820;4.884;2022-09-09T12:06:57;1830.07;;;999.90;;
15905;SDS011;8051;50.820;4.884;2022-09-09T12:09:29;1999.90;;;999.90;;
15905;SDS011;8051;50.820;4.884;2022-09-09T12:12:23;1999.90;;;999.90;;
15905;SDS011;8051;50.820;4.884;2022-09-09T12:14:57;1999.90;;;999.90;;
15905;SDS011;8051;50.820;4.884;2022-09-09T12:17:27;1999.90;;;999.90;;
15905;SDS011;8051;50.820;4.884;2022-09-09T12:20:10;1999.90;;;999.90;;
15905;SDS011;8051;50.820;4.884;2022-09-09T12:22:44;1999.90;;;999.90;;
15905;SDS011;8051;50.820;4.884;2022-09-09T12:25:30;1999.90;;;999.90;;
15905;SDS011;8051;50.820;4.884;2022-09-09T12:28:04;1999.90;;;999.90;;
15905;SDS011;8051;50.820;4.884;2022-09-09T12:30:37;1999.90;;;999.90;;
15905;SDS011;8051;50.820;4.884;2022-09-09T12:33:12;1999.90;;;999.90;;
15905;SDS011;8051;50.820;4.884;2022-09-09T12:35:44;1999.90;;;999.90;;
15905;SDS011;8051;50.820;4.884;2022-09-09T12:38:26;1649.63;;;999.90;;
15905;SDS011;8051;50.820;4.884;2022-09-09T12:40:59;1999.90;;;999.90;;
15905;SDS011;8051;50.820;4.884;2022-09-09T12:43:26;1999.90;;;999.90;;
15905;SDS011;8051;50.820;4.884;2022-09-09T12:45:56;1138.73;;;999.90;;
15905;SDS011;8051;50.820;4.884;2022-09-09T12:48:32;1188.20;;;999.90;;
15905;SDS011;8051;50.820;4.884;2022-09-09T12:51:01;1213.97;;;999.90;;
15905;SDS011;8051;50.820;4.884;2022-09-09T12:53:31;942.17;;;872.63;;
15905;SDS011;8051;50.820;4.884;2022-09-09T12:56:00;1611.40;;;999.90;;
15905;SDS011;8051;50.820;4.884;2022-09-09T12:58:32;1177.43;;;999.90;;
15905;SDS011;8051;50.820;4.884;2022-09-09T13:01:00;1020.10;;;945.20;;
15905;SDS011;8051;50.820;4.884;2022-09-09T13:03:30;1999.90;;;999.90;;
15905;SDS011;8051;50.820;4.884;2022-09-09T13:06:10;1160.13;;;999.90;;
15905;SDS011;8051;50.820;4.884;2022-09-09T13:08:39;1386.80;;;999.90;;
15905;SDS011;8051;50.820;4.884;2022-09-09T13:11:07;1538.63;;;999.90;;
15905;SDS011;8051;50.820;4.884;2022-09-09T13:13:39;1052.47;;;970.53;;
15905;SDS011;8051;50.820;4.884;2022-09-09T13:16:17;1999.90;;;999.90;;
15905;SDS011;8051;50.820;4.884;2022-09-09T13:18:48;1833.80;;;999.90;;
15905;SDS011;8051;50.820;4.884;2022-09-09T13:21:15;1294.13;;;999.90;;
15905;SDS011;8051;50.820;4.884;2022-09-09T13:23:42;1090.73;;;999.90;;
15905;SDS011;8051;50.820;4.884;2022-09-09T13:26:22;1716.83;;;999.90;;
15905;SDS011;8051;50.820;4.884;2022-09-09T13:28:51;1272.90;;;999.90;;
15905;SDS011;8051;50.820;4.884;2022-09-09T13:31:20;1228.90;;;999.90;;
15905;SDS011;8051;50.820;4.884;2022-09-09T13:33:49;981.60;;;905.30;;
15905;SDS011;8051;50.820;4.884;2022-09-09T13:36:26;931.70;;;860.27;;
15905;SDS011;8051;50.820;4.884;2022-09-09T13:38:56;938.57;;;874.27;;
15905;SDS011;8051;50.820;4.884;2022-09-09T13:41:26;959.77;;;885.63;;
15905;SDS011;8051;50.820;4.884;2022-09-09T13:43:57;1999.90;;;999.90;;
15905;SDS011;8051;50.820;4.884;2022-09-09T13:46:25;921.70;;;859.07;;
15905;SDS011;8051;50.820;4.884;2022-09-09T13:48:59;1538.03;;;999.90;;
15905;SDS011;8051;50.820;4.884;2022-09-09T13:51:32;1036.53;;;955.40;;
15905;SDS011;8051;50.820;4.884;2022-09-09T13:54:02;1031.37;;;954.60;;
15905;SDS011;8051;50.820;4.884;2022-09-09T13:56:31;1124.00;;;999.90;;
15905;SDS011;8051;50.820;4.884;2022-09-09T13:58:58;1272.40;;;999.90;;
15905;SDS011;8051;50.820;4.884;2022-09-09T14:01:25;1063.50;;;978.47;;
15905;SDS011;8051;50.820;4.884;2022-09-09T14:03:52;1046.30;;;968.53;;
15905;SDS011;8051;50.820;4.884;2022-09-09T14:06:20;1226.17;;;999.90;;
15905;SDS011;8051;50.820;4.884;2022-09-09T14:08:48;979.00;;;900.70;;
15905;SDS011;8051;50.820;4.884;2022-09-09T14:11:16;912.63;;;848.37;;
15905;SDS011;8051;50.820;4.884;2022-09-09T14:13:44;1510.60;;;999.90;;
15905;SDS011;8051;50.820;4.884;2022-09-09T14:16:11;896.77;;;833.77;;
15905;SDS011;8051;50.820;4.884;2022-09-09T14:18:38;1999.90;;;999.90;;
15905;SDS011;8051;50.820;4.884;2022-09-09T14:21:05;1103.47;;;987.63;;
15905;SDS011;8051;50.820;4.884;2022-09-09T14:23:35;1150.07;;;999.90;;